Time;durP1;ratioP1;P1;durP2;ratioP2;P2;SDS_P1;SDS_P2;PMS_P1;PMS_P2;Temp;Humidity;BMP_temperature;BMP_pressure;BME280_temperature;BME280_humidity;BME280_pressure;Samples;Min_cycle;Max_cycle;Signal;HPM_P1;HPM_P2
2022/10/30 00:00:57;;;;;;;9.93;6.95;;;;;;;14.85;85.25;100011.00;1638727;86;21037;-66
2022/10/30 00:03:24;;;;;;;8.28;6.55;;;;;;;14.84;85.14;100007.48;1666341;85;21034;-66
2022/10/30 00:05:51;;;;;;;8.18;5.97;;;;;;;14.87;85.10;100009.72;1654652;85;21075;-66
2022/10/30 00:08:21;;;;;;;9.83;5.67;;;;;;;14.87;85.08;100016.43;1660846;85;21082;-66
2022/10/30 00:10:51;;;;;;;7.87;5.62;;;;;;;14.86;85.09;100013.47;1666389;85;21031;-66
2022/10/30 00:13:18;;;;;;;9.30;5.92;;;;;;;14.88;84.99;100013.22;1693868;83;21033;-66
2022/10/30 00:15:51;;;;;;;10.70;5.92;;;;;;;14.88;84.98;100018.09;1719260;83;21105;-66
2022/10/30 00:18:19;;;;;;;8.45;5.62;;;;;;;14.88;84.89;100019.42;1711811;82;21078;-66
2022/10/30 00:20:47;;;;;;;6.30;5.55;;;;;;;14.91;84.72;100017.61;1712672;82;20959;-68
2022/10/30 00:23:14;;;;;;;9.00;5.95;;;;;;;14.92;84.74;100020.61;1704658;83;22221;-68
2022/10/30 00:25:44;;;;;;;6.50;5.00;;;;;;;14.89;84.58;100018.89;1712988;83;21116;-66
2022/10/30 00:28:10;;;;;;;9.13;5.08;;;;;;;14.87;84.67;100014.28;1698325;82;21013;-66
2022/10/30 00:30:37;;;;;;;8.58;5.28;;;;;;;14.85;84.48;100009.13;1713091;83;20982;-67
2022/10/30 00:33:04;;;;;;;8.00;5.75;;;;;;;14.81;84.59;100011.16;1716367;81;20988;-67
2022/10/30 00:35:31;;;;;;;8.25;5.92;;;;;;;14.81;84.64;100001.77;1725924;81;21566;-69
2022/10/30 00:37:59;;;;;;;6.92;5.10;;;;;;;14.84;84.50;100001.30;1709240;83;21051;-66
2022/10/30 00:40:26;;;;;;;9.50;5.67;;;;;;;14.82;84.48;100001.52;1694357;81;21054;-67
2022/10/30 00:42:53;;;;;;;8.40;5.03;;;;;;;14.78;84.45;99998.99;1737297;81;21016;-66
2022/10/30 00:45:21;;;;;;;9.43;5.90;;;;;;;14.77;84.56;100004.08;1715777;81;21559;-66
2022/10/30 00:47:58;;;;;;;9.60;4.97;;;;;;;14.78;84.50;99998.99;1704167;83;21082;-66
2022/10/30 00:50:30;;;;;;;7.40;5.70;;;;;;;14.79;84.28;100003.33;1700445;83;20989;-67
2022/10/30 00:53:07;;;;;;;12.05;5.87;;;;;;;14.80;84.21;100004.95;1705775;83;20989;-66
2022/10/30 00:55:43;;;;;;;8.48;5.15;;;;;;;14.80;83.92;100006.29;1710753;82;20974;-66
2022/10/30 00:58:14;;;;;;;10.93;6.15;;;;;;;14.76;83.96;100001.89;1710961;83;21025;-67
2022/10/30 01:00:47;;;;;;;10.03;5.08;;;;;;;14.75;83.78;100006.16;1713827;83;21025;-67
2022/10/30 01:03:14;;;;;;;8.45;5.22;;;;;;;14.73;83.66;100006.38;1709894;83;21084;-66
2022/10/30 01:05:46;;;;;;;12.45;6.05;;;;;;;14.69;83.51;100007.88;1704740;83;20991;-65
2022/10/30 01:08:12;;;;;;;10.95;5.70;;;;;;;14.66;83.63;100010.19;1704786;83;21077;-66
2022/10/30 01:10:42;;;;;;;7.22;4.60;;;;;;;14.65;83.61;100005.31;1708966;83;21085;-66
2022/10/30 01:13:09;;;;;;;9.15;5.15;;;;;;;14.65;83.51;100017.92;1710039;83;21590;-67
2022/10/30 01:15:40;;;;;;;5.33;4.83;;;;;;;14.64;83.48;100017.11;1702515;83;21006;-66
2022/10/30 01:18:29;;;;;;;5.03;4.53;;;;;;;14.64;83.36;100017.11;1709354;83;21118;-67
2022/10/30 01:21:07;;;;;;;7.08;5.05;;;;;;;14.66;83.20;100015.55;1715431;81;20973;-67
2022/10/30 01:24:00;;;;;;;9.38;4.70;;;;;;;14.66;82.78;100006.16;1730012;81;21178;-66
2022/10/30 01:27:23;;;;;;;9.20;4.28;;;;;;;14.59;82.16;100001.66;1731570;83;21009;-64
2022/10/30 01:30:20;;;;;;;8.28;4.47;;;;;;;14.55;82.35;100004.47;1706270;81;21065;-66
2022/10/30 01:33:11;;;;;;;5.17;4.17;;;;;;;14.49;82.38;99991.95;1678137;83;21103;-67
2022/10/30 01:35:47;;;;;;;9.13;4.33;;;;;;;14.47;82.33;99981.17;1701687;83;21057;-66
2022/10/30 01:38:34;;;;;;;9.40;4.58;;;;;;;14.43;82.25;99970.06;1712904;83;21040;-66
2022/10/30 01:41:00;;;;;;;9.85;4.83;;;;;;;14.37;82.24;99972.27;1709813;83;21522;-67
2022/10/30 01:43:27;;;;;;;5.80;3.87;;;;;;;14.32;82.55;99980.18;1688051;84;21563;-69
2022/10/30 01:46:13;;;;;;;4.05;3.65;;;;;;;14.34;82.59;99986.14;1702602;83;21069;-68
2022/10/30 01:49:12;;;;;;;5.00;4.60;;;;;;;14.34;82.43;99986.95;1657157;83;21089;-67
2022/10/30 01:52:09;;;;;;;6.22;4.30;;;;;;;14.30;82.28;99988.97;1701443;83;21054;-66
2022/10/30 01:55:00;;;;;;;7.65;4.60;;;;;;;14.29;82.48;99994.02;1698923;83;21146;-66
2022/10/30 01:58:06;;;;;;;5.08;4.30;;;;;;;14.29;82.40;99988.13;1701843;83;21522;-65
2022/10/30 02:00:35;;;;;;;4.97;4.12;;;;;;;14.30;82.45;99996.48;1662233;85;21117;-66
2022/10/30 02:03:01;;;;;;;6.60;3.83;;;;;;;14.32;82.14;99994.39;1661692;85;21533;-67
2022/10/30 02:05:43;;;;;;;4.60;4.20;;;;;;;14.32;81.86;100002.44;1648103;86;21006;-67
2022/10/30 02:08:10;;;;;;;7.30;4.30;;;;;;;14.34;81.66;99997.67;1679676;83;21443;-64
2022/10/30 02:10:40;;;;;;;5.78;3.98;;;;;;;14.33;81.68;99995.21;1704486;82;21567;-65
2022/10/30 02:13:06;;;;;;;4.20;3.33;;;;;;;14.32;81.44;99991.72;1642421;85;21067;-66
2022/10/30 02:15:34;;;;;;;10.00;4.42;;;;;;;14.31;81.49;99991.41;1676818;84;21175;-67
2022/10/30 02:18:01;;;;;;;6.72;4.15;;;;;;;14.28;81.43;100011.97;1681020;84;21028;-67
2022/10/30 02:20:28;;;;;;;6.30;4.00;;;;;;;14.26;81.39;100027.95;1677753;84;21489;-66
2022/10/30 02:22:56;;;;;;;8.88;4.37;;;;;;;14.21;81.53;100028.09;1647132;86;21169;-65
2022/10/30 02:25:24;;;;;;;6.10;3.98;;;;;;;14.14;81.71;100011.25;1643488;86;21613;-67
2022/10/30 02:27:51;;;;;;;7.28;4.90;;;;;;;14.20;81.56;100027.81;1632892;87;21131;-66
2022/10/30 02:30:18;;;;;;;4.70;3.98;;;;;;;14.17;81.68;100024.23;1648481;86;21007;-67
2022/10/30 02:32:45;;;;;;;6.90;3.60;;;;;;;14.16;81.58;100017.73;1652042;86;20976;-66
2022/10/30 02:35:12;;;;;;;6.70;4.03;;;;;;;14.21;81.70;100028.62;1650708;85;21628;-66
2022/10/30 02:37:39;;;;;;;6.42;4.05;;;;;;;14.25;81.48;100027.67;1646323;85;21090;-66
2022/10/30 02:40:08;;;;;;;6.90;4.05;;;;;;;14.24;81.43;100035.40;1638446;86;21063;-66
2022/10/30 02:42:35;;;;;;;6.47;4.70;;;;;;;14.24;81.41;100039.42;1648681;87;20996;-66
2022/10/30 02:45:02;;;;;;;7.28;3.90;;;;;;;14.28;81.07;100037.94;1668295;83;21037;-66
2022/10/30 02:47:29;;;;;;;5.08;4.22;;;;;;;14.21;81.24;100041.50;1644753;86;21102;-67
2022/10/30 02:49:56;;;;;;;7.35;3.33;;;;;;;14.18;81.21;100041.96;1667260;84;21110;-67
2022/10/30 02:52:23;;;;;;;5.50;4.25;;;;;;;14.12;81.43;100042.00;1669359;84;21090;-67
2022/10/30 02:54:49;;;;;;;12.58;4.65;;;;;;;14.09;81.64;100033.89;1681081;84;21045;-67
2022/10/30 02:57:15;;;;;;;7.62;4.22;;;;;;;14.07;81.69;100052.55;1684435;84;21002;-67
2022/10/30 02:59:44;;;;;;;7.70;4.47;;;;;;;14.11;81.74;100051.06;1678374;84;21045;-67
2022/10/30 03:02:11;;;;;;;7.15;4.20;;;;;;;14.12;81.64;100049.52;1678677;83;21030;-68
2022/10/30 03:04:37;;;;;;;;;;;;;;;14.13;81.47;100050.36;1680806;84;21108;-67
2022/10/30 03:07:05;;;;;;;9.88;3.67;;;;;;;14.12;81.51;100050.05;1673480;84;20127;-67
2022/10/30 03:09:32;;;;;;;3.67;3.37;;;;;;;14.08;81.61;100041.62;1650612;84;21049;-68
2022/10/30 03:12:00;;;;;;;5.53;4.47;;;;;;;14.07;81.66;100043.17;1669083;84;21575;-68
2022/10/30 03:14:28;;;;;;;8.70;4.00;;;;;;;14.07;81.87;100049.88;1678897;84;21057;-67
2022/10/30 03:16:54;;;;;;;10.53;3.35;;;;;;;14.08;81.62;100040.27;1674399;84;21007;-67
2022/10/30 03:19:20;;;;;;;5.40;3.72;;;;;;;14.06;81.58;100041.02;1684929;84;21044;-67
2022/10/30 03:21:48;;;;;;;6.37;3.62;;;;;;;14.04;81.59;100036.39;1718094;82;21021;-67
2022/10/30 03:24:15;;;;;;;4.55;3.50;;;;;;;14.05;81.52;100037.21;1711396;82;21025;-66
2022/10/30 03:26:52;;;;;;;5.00;3.35;;;;;;;14.02;81.45;100031.78;1711647;82;21018;-65
2022/10/30 03:29:18;;;;;;;9.28;3.80;;;;;;;13.95;81.58;100042.53;1703687;83;21098;-66
2022/10/30 03:31:45;;;;;;;4.10;3.70;;;;;;;13.89;81.99;100035.38;1703968;83;21498;-66
2022/10/30 03:34:18;;;;;;;5.95;3.55;;;;;;;13.82;82.03;100030.08;1681979;84;21474;-68
2022/10/30 03:36:44;;;;;;;6.22;3.15;;;;;;;13.78;82.11;100048.13;1726514;81;21027;-67
2022/10/30 03:39:11;;;;;;;4.50;3.50;;;;;;;13.78;82.17;100041.42;1735079;81;21060;-67
2022/10/30 03:41:42;;;;;;;4.47;2.98;;;;;;;13.79;82.12;100053.80;1710290;83;21545;-67
2022/10/30 03:44:08;;;;;;;5.95;3.27;;;;;;;13.78;82.29;100056.97;1700247;83;21077;-66
2022/10/30 03:46:35;;;;;;;9.78;3.45;;;;;;;13.79;82.30;100053.80;1719664;82;21030;-66
2022/10/30 03:49:03;;;;;;;6.92;3.80;;;;;;;13.80;82.38;100048.73;1712986;82;21045;-65
2022/10/30 03:51:29;;;;;;;6.15;3.85;;;;;;;13.82;82.37;100059.55;1704429;83;21033;-67
2022/10/30 03:53:56;;;;;;;5.12;3.55;;;;;;;13.82;82.40;100051.52;1712872;83;21099;-66
2022/10/30 03:56:22;;;;;;;4.70;3.52;;;;;;;13.83;82.29;100050.45;1705244;83;21552;-65
2022/10/30 03:58:52;;;;;;;3.80;3.45;;;;;;;13.85;82.19;100054.27;1702505;83;21109;-66
2022/10/30 04:01:21;;;;;;;6.53;3.25;;;;;;;13.85;82.15;100048.91;1702047;83;21005;-66
2022/10/30 04:03:50;;;;;;;8.20;3.72;;;;;;;13.82;82.14;100050.67;1699673;83;21053;-65
2022/10/30 04:06:17;;;;;;;5.30;2.90;;;;;;;13.81;82.23;100055.73;1692926;83;21051;-67
2022/10/30 04:08:43;;;;;;;7.28;4.12;;;;;;;13.79;81.99;100056.48;1697598;83;20990;-66
2022/10/30 04:11:12;;;;;;;8.28;3.33;;;;;;;13.77;82.06;100051.86;1700127;83;21550;-66
2022/10/30 04:13:40;;;;;;;7.80;3.75;;;;;;;13.77;81.99;100053.20;1699884;83;21113;-65
2022/10/30 04:16:06;;;;;;;4.42;2.98;;;;;;;13.77;82.04;100045.98;1699894;83;21041;-67
2022/10/30 04:18:33;;;;;;;3.55;2.90;;;;;;;13.75;81.34;100041.36;1705091;83;21059;-66
2022/10/30 04:21:01;;;;;;;4.08;2.77;;;;;;;13.72;81.19;100039.09;1668359;84;21512;-66
2022/10/30 04:23:28;;;;;;;4.92;2.67;;;;;;;13.69;81.21;100035.50;1690056;84;21574;-67
2022/10/30 04:25:54;;;;;;;3.77;2.87;;;;;;;13.71;81.01;100038.81;1707497;83;21123;-65
2022/10/30 04:28:21;;;;;;;;;;;;;;;13.73;80.98;100039.41;1709614;83;21016;-65
2022/10/30 04:30:48;;;;;;;3.92;2.47;;;;;;;13.75;80.91;100042.69;1705259;83;20435;-66
2022/10/30 04:33:15;;;;;;;5.83;2.77;;;;;;;13.72;80.73;100044.45;1659227;84;21021;-66
2022/10/30 04:35:43;;;;;;;9.73;2.72;;;;;;;13.74;80.57;100049.08;1675672;84;21119;-67
2022/10/30 04:38:18;;;;;;;4.35;2.47;;;;;;;13.75;79.39;100052.56;1638293;86;21082;-67
2022/10/30 04:40:45;;;;;;;5.30;2.92;;;;;;;13.69;78.41;100049.42;1669738;83;21001;-67
2022/10/30 04:43:14;;;;;;;5.80;2.30;;;;;;;13.65;78.56;100049.03;1641749;86;21552;-66
2022/10/30 04:45:41;;;;;;;6.90;1.87;;;;;;;13.65;78.31;100051.70;1686620;84;21580;-66
2022/10/30 04:48:14;;;;;;;4.22;2.02;;;;;;;13.63;77.56;100055.93;1670100;84;21519;-66
2022/10/30 04:50:44;;;;;;;2.58;2.08;;;;;;;13.64;77.58;100066.15;1641860;86;21555;-72
2022/10/30 04:53:17;;;;;;;5.37;2.25;;;;;;;13.64;77.19;100070.16;1652435;82;21071;-66
2022/10/30 04:55:47;;;;;;;3.80;2.30;;;;;;;13.65;77.27;100074.47;1655688;85;21216;-67
2022/10/30 04:58:14;;;;;;;4.67;2.47;;;;;;;13.66;77.25;100075.31;1659634;83;21441;-70
2022/10/30 05:00:43;;;;;;;4.10;1.90;;;;;;;13.66;77.09;100070.77;1671494;84;21629;-70
2022/10/30 05:03:23;;;;;;;3.50;2.15;;;;;;;13.69;76.64;100077.02;1663952;85;21633;-73
2022/10/30 05:06:05;;;;;;;6.47;1.50;;;;;;;13.71;76.20;100072.30;1634733;85;21063;-72
2022/10/30 05:08:36;;;;;;;4.00;1.45;;;;;;;13.71;74.99;100079.48;1627234;86;21024;-72
2022/10/30 05:11:04;;;;;;;5.67;2.02;;;;;;;13.69;75.09;100083.71;1632381;86;21026;-72
2022/10/30 05:13:32;;;;;;;4.25;1.60;;;;;;;13.70;74.69;100077.33;1642575;86;21082;-68
2022/10/30 05:15:59;;;;;;;5.67;1.40;;;;;;;13.70;74.40;100083.22;1640131;86;21105;-69
2022/10/30 05:18:26;;;;;;;4.58;0.82;;;;;;;13.68;73.95;100086.10;1646379;86;20969;-67
2022/10/30 05:20:54;;;;;;;2.12;1.17;;;;;;;13.69;74.04;100088.25;1646297;85;21117;-68
2022/10/30 05:23:22;;;;;;;10.53;2.05;;;;;;;13.65;73.30;100093.74;1671207;85;21699;-68
2022/10/30 05:25:48;;;;;;;;;;;;;;;13.63;73.07;100097.44;1667169;85;21073;-71
2022/10/30 05:28:15;;;;;;;2.25;0.93;;;;;;;13.63;73.27;100106.00;1655616;85;20189;-70
2022/10/30 05:30:44;;;;;;;3.22;0.95;;;;;;;13.56;73.06;100102.53;1671294;84;21069;-69
2022/10/30 05:33:16;;;;;;;5.42;1.80;;;;;;;13.55;73.25;100107.08;1685256;83;21076;-69
2022/10/30 05:35:44;;;;;;;1.77;1.07;;;;;;;13.56;73.37;100110.56;1690114;83;21524;-69
2022/10/30 05:38:10;;;;;;;;;;;;;;;13.59;73.19;100113.64;1693373;83;21465;-70
2022/10/30 05:40:40;;;;;;;2.47;1.42;;;;;;;13.64;72.80;100119.71;1664032;85;20110;-68
2022/10/30 05:43:07;;;;;;;4.08;0.90;;;;;;;13.61;73.04;100119.59;1688605;84;20962;-69
2022/10/30 05:45:34;;;;;;;1.72;0.93;;;;;;;13.63;72.60;100118.87;1680138;84;22135;-71
2022/10/30 05:48:04;;;;;;;2.98;1.05;;;;;;;13.65;72.65;100122.67;1667929;84;21069;-65
2022/10/30 05:50:33;;;;;;;3.42;0.90;;;;;;;13.66;72.41;100126.20;1669581;86;21006;-68
2022/10/30 05:53:10;;;;;;;1.92;1.47;;;;;;;13.64;72.34;100127.75;1693389;83;21032;-65
2022/10/30 05:55:38;;;;;;;4.08;1.22;;;;;;;13.67;72.19;100126.48;1666450;84;21055;-69
2022/10/30 05:58:12;;;;;;;4.62;0.80;;;;;;;13.66;72.19;100144.42;1649824;84;21041;-69
2022/10/30 06:00:43;;;;;;;4.00;0.88;;;;;;;13.71;72.05;100127.20;1667307;84;21062;-65
2022/10/30 06:03:11;;;;;;;2.45;0.50;;;;;;;13.70;69.75;100130.09;1681787;84;21078;-64
2022/10/30 06:05:44;;;;;;;1.75;0.60;;;;;;;13.68;69.99;100149.05;1682589;82;21042;-66
2022/10/30 06:08:11;;;;;;;2.45;0.93;;;;;;;13.64;70.13;100134.44;1678374;84;21066;-65
2022/10/30 06:10:39;;;;;;;2.87;0.60;;;;;;;13.60;69.88;100143.94;1678634;84;21085;-65
2022/10/30 06:13:07;;;;;;;4.83;0.82;;;;;;;13.57;69.78;100149.71;1670139;84;21572;-68
2022/10/30 06:15:43;;;;;;;5.67;0.93;;;;;;;13.53;69.97;100154.66;1657663;85;21061;-64
2022/10/30 06:18:11;;;;;;;1.20;0.50;;;;;;;13.49;70.09;100159.34;1611042;86;21573;-66
2022/10/30 06:20:42;;;;;;;1.55;0.70;;;;;;;13.48;70.23;100159.02;1664136;84;21073;-65
2022/10/30 06:23:29;;;;;;;2.40;0.62;;;;;;;13.47;70.71;100159.54;1665213;84;21167;-65
2022/10/30 06:26:13;;;;;;;7.67;1.07;;;;;;;13.48;71.44;100157.15;1679419;84;20987;-64
2022/10/30 06:28:44;;;;;;;2.62;0.80;;;;;;;13.52;71.04;100163.72;1674077;84;21091;-66
2022/10/30 06:31:12;;;;;;;4.10;1.07;;;;;;;13.55;70.94;100156.61;1680566;84;21155;-66
2022/10/30 06:33:38;;;;;;;1.32;0.70;;;;;;;13.59;70.83;100154.34;1680908;84;20997;-71
2022/10/30 06:36:05;;;;;;;2.85;0.82;;;;;;;13.62;71.05;100168.12;1705865;83;21206;-67
2022/10/30 06:38:32;;;;;;;4.78;0.62;;;;;;;13.66;70.98;100172.55;1698506;83;21151;-69
2022/10/30 06:40:59;;;;;;;2.58;0.62;;;;;;;13.68;70.47;100160.28;1667837;84;21518;-67
2022/10/30 06:43:35;;;;;;;2.62;0.88;;;;;;;13.64;70.09;100169.26;1662459;83;20966;-60
2022/10/30 06:46:06;;;;;;;2.47;0.68;;;;;;;13.61;70.15;100170.48;1703454;83;21542;-61
2022/10/30 06:48:34;;;;;;;3.95;0.90;;;;;;;13.60;70.29;100174.22;1687284;83;21028;-61
2022/10/30 06:51:01;;;;;;;2.37;1.42;;;;;;;13.59;69.82;100173.08;1669253;84;21173;-59
2022/10/30 06:53:30;;;;;;;0.93;0.30;;;;;;;13.24;69.90;100126.02;1652710;84;21020;-62
2022/10/30 06:56:01;;;;;;;2.58;1.17;;;;;;;13.54;69.60;100167.53;1641308;86;21108;-62
2022/10/30 06:58:38;;;;;;;2.80;0.70;;;;;;;13.51;69.85;100171.98;1603429;87;21621;-61
2022/10/30 07:01:06;;;;;;;3.05;0.60;;;;;;;13.47;69.75;100176.95;1650452;86;21034;-60
2022/10/30 07:03:32;;;;;;;5.72;1.30;;;;;;;13.42;70.04;100173.55;1665319;85;21022;-60
2022/10/30 07:05:59;;;;;;;4.03;0.60;;;;;;;13.37;69.61;100174.72;1668071;84;21053;-60
2022/10/30 07:08:26;;;;;;;6.92;1.12;;;;;;;13.31;69.93;100178.21;1654732;84;21058;-63
2022/10/30 07:10:57;;;;;;;7.60;0.95;;;;;;;13.29;70.28;100182.92;1636469;86;21053;-63
2022/10/30 07:13:23;;;;;;;5.25;1.77;;;;;;;13.31;70.05;100178.21;1697387;81;21019;-62
2022/10/30 07:15:54;;;;;;;3.35;0.78;;;;;;;13.32;70.55;100182.55;1738186;81;21049;-60
2022/10/30 07:18:24;;;;;;;8.23;0.62;;;;;;;13.38;70.29;100175.53;1748868;81;21634;-60
2022/10/30 07:20:56;;;;;;;2.10;0.40;;;;;;;13.38;70.22;100175.00;1749033;80;21002;-60
2022/10/30 07:23:24;;;;;;;4.20;0.95;;;;;;;13.37;70.11;100173.38;1736635;81;21011;-59
2022/10/30 07:25:52;;;;;;;1.30;0.60;;;;;;;13.36;70.19;100175.73;1688882;84;21052;-60
2022/10/30 07:28:20;;;;;;;4.53;0.75;;;;;;;13.35;70.44;100175.94;1682127;83;21091;-62
2022/10/30 07:30:51;;;;;;;4.40;1.32;;;;;;;13.34;70.35;100172.97;1685950;84;21030;-73
2022/10/30 07:33:36;;;;;;;2.95;0.95;;;;;;;13.33;70.67;100168.11;1685547;82;21058;-66
2022/10/30 07:36:06;;;;;;;10.80;1.57;;;;;;;13.33;70.18;100164.09;1695143;83;21062;-61
2022/10/30 07:38:50;;;;;;;3.37;0.50;;;;;;;13.37;70.59;100169.85;1701694;82;21129;-60
2022/10/30 07:41:20;;;;;;;1.92;0.95;;;;;;;13.43;70.33;100173.05;1707002;82;21537;-61
2022/10/30 07:43:47;;;;;;;1.72;0.80;;;;;;;13.47;68.82;100165.39;1704994;82;21132;-61
2022/10/30 07:46:34;;;;;;;3.90;0.60;;;;;;;13.43;68.40;100165.83;1699088;82;21033;-59
2022/10/30 07:49:02;;;;;;;2.58;0.60;;;;;;;13.43;68.17;100156.98;1702330;82;21014;-58
2022/10/30 07:51:30;;;;;;;2.37;0.30;;;;;;;13.44;68.19;100156.75;1703530;82;21038;-62
2022/10/30 07:53:56;;;;;;;2.27;0.68;;;;;;;13.48;67.87;100161.16;1706301;82;21574;-62
2022/10/30 07:56:24;;;;;;;6.17;0.90;;;;;;;13.51;67.34;100158.60;1696464;82;21542;-59
2022/10/30 07:58:53;;;;;;;1.15;0.30;;;;;;;13.51;66.98;100165.30;1680081;84;21052;-64
2022/10/30 08:01:37;;;;;;;2.17;0.65;;;;;;;13.48;66.47;100153.66;1678113;84;21032;-60
2022/10/30 08:04:12;;;;;;;0.53;0.30;;;;;;;13.45;66.71;100157.59;1681700;84;21093;-62
2022/10/30 08:06:40;;;;;;;1.90;0.20;;;;;;;13.44;66.81;100164.78;1678318;84;21067;-68
2022/10/30 08:09:06;;;;;;;;;;;;;;;13.47;66.75;100164.05;1683338;84;21045;-58
2022/10/30 08:11:34;;;;;;;0.90;0.20;;;;;;;13.49;66.95;100163.34;1678831;84;20142;-60
2022/10/30 08:14:02;;;;;;;2.67;0.60;;;;;;;13.46;66.68;100165.09;1670081;83;21621;-61
2022/10/30 08:16:29;;;;;;;1.45;0.20;;;;;;;13.50;66.39;100182.38;1672455;84;21503;-61
2022/10/30 08:18:56;;;;;;;1.27;0.10;;;;;;;13.55;66.22;100175.88;1688113;84;21036;-68
2022/10/30 08:21:24;;;;;;;2.42;0.17;;;;;;;13.56;66.21;100178.36;1679204;84;21138;-66
2022/10/30 08:23:56;;;;;;;3.95;0.35;;;;;;;13.59;65.82;100178.44;1671850;84;21082;-78
2022/10/30 08:26:23;;;;;;;3.35;0.20;;;;;;;13.62;65.65;100186.06;1642682;85;21007;-68
2022/10/30 08:28:52;;;;;;;3.08;0.25;;;;;;;13.63;65.18;100180.47;1677404;81;21004;-68
2022/10/30 08:31:18;;;;;;;7.47;0.15;;;;;;;13.63;65.22;100185.82;1655025;85;21074;-68
2022/10/30 08:34:04;;;;;;;1.52;0.20;;;;;;;13.65;64.97;100183.46;1691875;83;21036;-65
2022/10/30 08:36:38;;;;;;;0.50;0.10;;;;;;;13.65;65.15;100177.58;1686931;83;21561;-66
2022/10/30 08:39:06;;;;;;;1.27;0.47;;;;;;;13.65;65.34;100178.92;1700112;83;21065;-65
2022/10/30 08:41:34;;;;;;;2.05;0.82;;;;;;;13.67;65.21;100186.75;1698899;83;20946;-66
2022/10/30 08:44:01;;;;;;;3.95;0.75;;;;;;;13.69;65.23;100183.34;1702984;83;21072;-69
2022/10/30 08:46:30;;;;;;;2.67;0.13;;;;;;;13.69;65.25;100185.49;1699466;83;21657;-67
2022/10/30 08:48:58;;;;;;;1.92;0.30;;;;;;;13.69;65.67;100180.66;1700476;83;21044;-69
2022/10/30 08:51:24;;;;;;;1.95;0.70;;;;;;;13.70;65.56;100193.84;1673494;84;21514;-68
2022/10/30 08:53:51;;;;;;;3.50;0.50;;;;;;;13.72;65.11;100191.77;1698183;83;21250;-66
2022/10/30 08:56:19;;;;;;;1.12;0.30;;;;;;;13.75;65.18;100190.02;1707418;82;21104;-65
2022/10/30 08:58:50;;;;;;;4.03;0.33;;;;;;;13.76;65.22;100187.62;1730953;81;21044;-65
2022/10/30 09:01:17;;;;;;;1.27;0.20;;;;;;;13.78;65.14;100196.27;1721545;82;20977;-66
2022/10/30 09:04:03;;;;;;;0.82;0.28;;;;;;;13.78;65.15;100188.77;1729704;82;21108;-68
2022/10/30 09:06:33;;;;;;;1.57;0.20;;;;;;;13.77;65.73;100189.81;1696501;82;21523;-67
2022/10/30 09:09:10;;;;;;;2.15;0.28;;;;;;;13.80;65.26;100187.50;1737953;81;22182;-65
2022/10/30 09:11:39;;;;;;;4.75;0.60;;;;;;;13.82;65.17;100189.97;1727468;82;21591;-66
2022/10/30 09:14:05;;;;;;;0.70;0.45;;;;;;;13.80;65.21;100192.86;1732124;82;21065;-67
2022/10/30 09:16:31;;;;;;;2.47;0.30;;;;;;;13.81;64.97;100181.65;1737168;81;21017;-65
2022/10/30 09:18:57;;;;;;;1.57;0.10;;;;;;;13.79;64.69;100180.52;1694594;83;21089;-64
2022/10/30 09:21:24;;;;;;;2.17;0.95;;;;;;;13.78;64.76;100180.20;1688123;84;21066;-65
2022/10/30 09:23:51;;;;;;;3.00;0.82;;;;;;;13.77;64.44;100180.44;1676029;84;21033;-68
2022/10/30 09:26:35;;;;;;;2.98;0.30;;;;;;;13.78;64.20;100174.03;1688515;84;21076;-70
2022/10/30 09:29:07;;;;;;;2.10;0.10;;;;;;;13.80;63.82;100180.80;1651243;84;21076;-68
2022/10/30 09:31:52;;;;;;;3.05;0.30;;;;;;;13.80;63.88;100174.63;1671444;84;21052;-68
2022/10/30 09:34:19;;;;;;;3.67;0.40;;;;;;;13.80;64.06;100170.09;1694634;83;21029;-64
2022/10/30 09:36:48;;;;;;;0.82;0.55;;;;;;;13.80;64.17;100168.75;1687960;83;21076;-64
2022/10/30 09:39:15;;;;;;;3.65;0.47;;;;;;;13.81;64.32;100173.09;1681639;83;21092;-67
2022/10/30 09:42:27;;;;;;;3.15;0.20;;;;;;;13.81;64.00;100165.05;1677413;84;21060;-67
2022/10/30 09:45:29;;;;;;;1.92;0.10;;;;;;;13.80;64.04;100172.77;1669284;84;21581;-64
2022/10/30 09:48:09;;;;;;;2.90;0.20;;;;;;;13.81;63.66;100168.25;1693624;83;21582;-68
2022/10/30 09:51:08;;;;;;;2.27;0.13;;;;;;;13.83;63.51;100169.67;1665531;84;21065;-65
2022/10/30 09:53:52;;;;;;;3.00;0.30;;;;;;;13.87;63.58;100176.77;1674335;84;21052;-65
2022/10/30 09:57:51;;;;;;;1.30;0.62;;;;;;;13.93;63.54;100173.75;1772714;76;21956;-66
2022/10/30 10:00:22;;;;;;;2.02;0.30;;;;;;;13.92;63.68;100170.75;1691940;83;21655;-65
2022/10/30 10:03:16;;;;;;;2.27;0.47;;;;;;;13.92;63.95;100176.11;1683103;83;21139;-67
2022/10/30 10:05:58;;;;;;;6.05;0.93;;;;;;;13.81;64.01;100174.42;1652447;83;21052;-68
2022/10/30 10:08:47;;;;;;;1.75;0.35;;;;;;;13.80;64.51;100172.77;1711985;81;21069;-68
2022/10/30 10:11:36;;;;;;;2.83;0.20;;;;;;;13.80;64.82;100172.77;1738065;81;21056;-67
2022/10/30 10:14:25;;;;;;;2.92;0.30;;;;;;;13.79;64.84;100171.14;1692246;83;21103;-68
2022/10/30 10:16:54;;;;;;;3.27;0.45;;;;;;;13.80;64.38;100166.07;1699558;83;21009;-69
2022/10/30 10:19:49;;;;;;;3.27;0.25;;;;;;;13.84;64.41;100162.45;1699456;82;21084;-70
2022/10/30 10:22:30;;;;;;;5.33;0.93;;;;;;;13.88;64.64;100165.03;1701243;83;21065;-66
2022/10/30 10:24:58;;;;;;;7.92;0.50;;;;;;;13.91;64.64;100161.09;1700935;82;21143;-65
2022/10/30 10:27:34;;;;;;;;;;;;;;;13.93;64.13;100150.98;1696102;83;21032;-67
2022/10/30 10:30:06;;;;;;;2.10;0.40;;;;;;;13.92;64.18;100156.86;1601802;84;20154;-68
2022/10/30 10:33:14;;;;;;;3.60;0.60;;;;;;;13.87;63.99;100155.86;1668161;84;21008;-66
2022/10/30 10:36:04;;;;;;;4.42;0.70;;;;;;;13.85;64.18;100152.58;1621229;86;90161;-83
2022/10/30 10:39:06;;;;;;;1.82;0.72;;;;;;;13.84;64.40;100153.08;1593544;89;21586;-84
2022/10/30 10:41:59;;;;;;;2.90;0.82;;;;;;;13.90;64.44;100163.45;1596106;85;21714;-87
2022/10/30 10:45:00;;;;;;;6.40;0.82;;;;;;;13.94;64.06;100148.61;1648592;85;21048;-85
2022/10/30 10:48:12;;;;;;;1.77;0.37;;;;;;;13.96;63.67;100159.94;1676309;84;21580;-84
2022/10/30 10:50:57;;;;;;;4.62;1.12;;;;;;;13.96;63.42;100155.39;1715785;80;21447;31
2022/10/30 10:53:32;;;;;;;3.02;0.57;;;;;;;13.95;63.42;100151.58;1704649;82;21065;-66
2022/10/30 10:56:00;;;;;;;2.08;0.42;;;;;;;13.97;63.55;100150.84;1683647;83;21052;-69
2022/10/30 10:58:49;;;;;;;1.85;0.57;;;;;;;13.97;63.76;100140.94;1687151;83;21613;-70
2022/10/30 11:01:24;;;;;;;5.20;0.70;;;;;;;14.02;63.39;100136.29;1682762;83;21073;-69
2022/10/30 11:03:55;;;;;;;1.25;0.30;;;;;;;14.08;62.66;100135.41;1636772;86;21051;-67
2022/10/30 11:06:32;;;;;;;3.50;0.30;;;;;;;14.13;62.24;100134.78;1638150;86;21059;-67
2022/10/30 11:09:20;;;;;;;1.15;0.20;;;;;;;14.17;62.44;100122.59;1672890;84;21028;-67
2022/10/30 11:11:49;;;;;;;4.50;0.30;;;;;;;14.16;61.93;100132.47;1680314;84;21056;-68
2022/10/30 11:14:24;;;;;;;5.15;0.28;;;;;;;14.21;61.47;100118.42;1686622;83;21191;-67
2022/10/30 11:17:28;;;;;;;2.27;0.65;;;;;;;14.24;61.88;100122.03;1653599;86;21659;-68
2022/10/30 11:20:00;;;;;;;1.00;0.35;;;;;;;14.30;61.60;100122.48;1645343;86;21056;-67
2022/10/30 11:22:37;;;;;;;6.00;0.30;;;;;;;14.35;61.64;100124.50;1643223;86;21220;-71
2022/10/30 11:25:27;;;;;;;1.42;0.57;;;;;;;14.42;61.39;100123.94;1639572;86;21101;-69
2022/10/30 11:27:58;;;;;;;1.82;0.42;;;;;;;14.44;60.90;100123.19;1642520;86;21053;-67
2022/10/30 11:30:27;;;;;;;3.12;0.37;;;;;;;14.46;61.19;100121.64;1688398;83;21047;-67
2022/10/30 11:32:57;;;;;;;2.58;0.33;;;;;;;14.46;61.19;100114.41;1686042;83;21075;-67
2022/10/30 11:35:24;;;;;;;1.52;0.33;;;;;;;14.47;61.41;100098.63;1688152;84;21606;-69
2022/10/30 11:38:18;;;;;;;1.17;0.33;;;;;;;14.40;60.84;100090.63;1674023;83;21323;-67
2022/10/30 11:40:50;;;;;;;1.55;0.42;;;;;;;14.50;60.97;100110.77;1678964;83;21053;-69
2022/10/30 11:43:21;;;;;;;0.93;0.50;;;;;;;14.49;61.35;100101.91;1696137;83;21047;-70
2022/10/30 11:45:49;;;;;;;2.35;0.82;;;;;;;14.48;61.61;100109.64;1678011;83;21090;-68
2022/10/30 11:48:29;;;;;;;2.52;0.68;;;;;;;14.48;61.35;100096.23;1698116;83;21510;-68
2022/10/30 11:50:59;;;;;;;2.45;0.62;;;;;;;14.49;61.06;100111.30;1695377;83;21082;-66
2022/10/30 11:53:38;;;;;;;4.22;0.72;;;;;;;14.46;60.53;100107.70;1696193;83;21002;-66